Time;durP1;ratioP1;P1;durP2;ratioP2;P2;SDS_P1;SDS_P2;PMS_P1;PMS_P2;Temp;Humidity;BMP_temperature;BMP_pressure;BME280_temperature;BME280_humidity;BME280_pressure;Samples;Min_cycle;Max_cycle;Signal;HPM_P1;HPM_P2
2021/06/16 00:00:21;;;;;;;5.97;5.20;;;21.00;66.60;;;;;;5159466;27;20207;-70
2021/06/16 00:02:49;;;;;;;5.27;4.77;;;20.90;67.00;;;;;;5153468;27;20259;-70
2021/06/16 00:05:25;;;;;;;12.00;5.00;;;20.80;67.00;;;;;;5165869;27;20259;-70
2021/06/16 00:07:53;;;;;;;10.57;6.03;;;20.80;67.10;;;;;;5165738;27;20229;-70
2021/06/16 00:10:31;;;;;;;6.23;4.40;;;20.80;67.30;;;;;;5164752;27;20218;-70
2021/06/16 00:13:00;;;;;;;8.30;5.60;;;20.80;67.20;;;;;;5163155;27;20544;-70
2021/06/16 00:15:32;;;;;;;8.33;5.13;;;20.80;67.10;;;;;;5159997;27;20294;-70
2021/06/16 00:18:00;;;;;;;7.87;4.80;;;20.80;67.10;;;;;;5163199;27;20302;-70
2021/06/16 00:20:27;;;;;;;8.60;4.93;;;20.70;67.20;;;;;;5159939;27;20233;-70
2021/06/16 00:22:55;;;;;;;9.53;4.90;;;20.60;67.40;;;;;;5164026;27;20644;-70
2021/06/16 00:25:24;;;;;;;9.90;5.17;;;20.70;67.70;;;;;;5156361;27;20717;-70
2021/06/16 00:27:52;;;;;;;6.50;4.87;;;20.60;67.70;;;;;;5163184;27;20218;-70
2021/06/16 00:30:20;;;;;;;5.40;4.90;;;20.60;67.80;;;;;;5162103;27;20618;-70
2021/06/16 00:32:47;;;;;;;17.70;5.87;;;20.60;67.80;;;;;;5160958;27;20198;-70
2021/06/16 00:35:20;;;;;;;10.43;5.53;;;20.60;68.10;;;;;;5156680;27;20214;-70
2021/06/16 00:37:48;;;;;;;6.10;5.10;;;20.60;68.20;;;;;;5165210;27;20230;-70
2021/06/16 00:40:23;;;;;;;8.20;5.07;;;20.50;68.30;;;;;;5166682;27;20202;-70
2021/06/16 00:42:50;;;;;;;14.17;5.73;;;20.40;68.60;;;;;;5166949;27;20210;-70
2021/06/16 00:45:17;;;;;;;14.33;5.83;;;20.30;69.00;;;;;;5155721;27;20268;-70
2021/06/16 00:47:45;;;;;;;10.93;5.40;;;20.20;69.30;;;;;;5163035;27;20207;-70
2021/06/16 00:50:13;;;;;;;10.27;5.67;;;20.20;70.20;;;;;;5165446;27;20222;-70
2021/06/16 00:52:40;;;;;;;9.37;5.73;;;20.20;69.70;;;;;;5164564;27;20295;-70
2021/06/16 00:55:08;;;;;;;12.23;6.17;;;20.10;70.00;;;;;;5164039;27;20214;-70
2021/06/16 00:57:36;;;;;;;9.83;6.63;;;20.10;70.10;;;;;;5162702;27;20235;-70
2021/06/16 01:00:11;;;;;;;12.17;6.40;;;20.10;70.40;;;;;;5166580;27;20214;-70
2021/06/16 01:03:10;;;;;;;11.93;6.13;;;20.10;70.80;;;;;;5162026;27;20203;-70
2021/06/16 01:05:47;;;;;;;11.90;5.93;;;20.10;70.90;;;;;;5157701;27;20643;-70
2021/06/16 01:08:25;;;;;;;7.70;4.77;;;20.10;70.80;;;;;;5159354;27;20215;-70
2021/06/16 01:10:53;;;;;;;8.63;5.23;;;20.00;70.80;;;;;;5163993;27;20271;-70
2021/06/16 01:13:20;;;;;;;6.20;4.83;;;20.00;70.90;;;;;;5163692;27;20211;-70
2021/06/16 01:16:15;;;;;;;5.83;4.47;;;20.00;71.20;;;;;;5157365;27;20543;-70
2021/06/16 01:18:51;;;;;;;7.67;4.83;;;19.90;71.40;;;;;;5118527;27;20265;-70
2021/06/16 01:21:19;;;;;;;6.50;4.53;;;19.90;71.60;;;;;;5164079;27;20277;-70
2021/06/16 01:24:14;;;;;;;11.03;5.63;;;19.90;71.80;;;;;;5164186;27;20218;-70
2021/06/16 01:26:47;;;;;;;7.43;5.50;;;19.90;72.10;;;;;;5166988;27;20222;-70
2021/06/16 01:29:37;;;;;;;6.10;5.47;;;19.90;72.30;;;;;;5162446;27;20223;-70
2021/06/16 01:32:05;;;;;;;7.60;5.20;;;19.90;72.50;;;;;;5166480;27;20211;-70
2021/06/16 01:34:32;;;;;;;6.97;5.57;;;19.90;72.30;;;;;;5162207;27;20210;-70
2021/06/16 01:37:00;;;;;;;13.27;5.50;;;19.90;72.50;;;;;;5166910;27;20596;-70
2021/06/16 01:39:34;;;;;;;8.00;5.57;;;19.90;73.10;;;;;;5169957;27;20203;-70
2021/06/16 01:42:09;;;;;;;7.00;5.40;;;19.90;72.60;;;;;;5148641;27;20224;-70
2021/06/16 01:44:36;;;;;;;6.10;4.90;;;19.80;72.40;;;;;;5161878;27;20590;-70
2021/06/16 01:47:04;;;;;;;12.00;6.57;;;19.70;72.30;;;;;;5166901;27;20237;-70
2021/06/16 01:49:33;;;;;;;6.73;5.40;;;19.70;72.40;;;;;;5165995;27;20225;-70
2021/06/16 01:52:02;;;;;;;12.37;6.20;;;19.70;72.60;;;;;;5167250;27;20210;-70
2021/06/16 01:54:32;;;;;;;12.47;7.00;;;19.70;72.70;;;;;;5168871;27;20725;-70
2021/06/16 01:57:00;;;;;;;8.33;7.23;;;19.70;72.70;;;;;;5161486;27;20211;-70
2021/06/16 01:59:28;;;;;;;8.10;5.10;;;19.70;72.80;;;;;;5168735;27;20202;-70
2021/06/16 02:01:55;;;;;;;8.97;6.87;;;19.70;72.80;;;;;;5167128;27;20617;-70
2021/06/16 02:04:22;;;;;;;8.63;6.07;;;19.80;72.70;;;;;;5164358;27;20236;-70
2021/06/16 02:06:55;;;;;;;7.80;5.90;;;19.70;73.00;;;;;;5166918;27;20270;-70
2021/06/16 02:09:24;;;;;;;8.30;6.13;;;19.70;73.50;;;;;;5168418;27;20210;-70
2021/06/16 02:11:51;;;;;;;6.50;5.33;;;19.70;74.00;;;;;;5162304;27;20238;-70
2021/06/16 02:14:21;;;;;;;9.70;5.73;;;19.60;74.30;;;;;;5168335;27;20214;-70
2021/06/16 02:17:04;;;;;;;9.70;6.43;;;19.60;74.30;;;;;;5167221;27;20222;-70
2021/06/16 02:19:33;;;;;;;7.90;6.33;;;19.60;74.50;;;;;;5158417;27;20210;-70
2021/06/16 02:22:01;;;;;;;7.57;6.60;;;19.50;74.50;;;;;;5165206;27;20267;-70
2021/06/16 02:24:28;;;;;;;8.07;5.53;;;19.40;74.20;;;;;;5166760;27;20214;-70
2021/06/16 02:26:55;;;;;;;8.53;6.00;;;19.40;74.00;;;;;;5167569;27;20739;-70
2021/06/16 02:29:25;;;;;;;7.83;5.90;;;19.40;74.00;;;;;;5165690;27;20708;-70
2021/06/16 02:31:52;;;;;;;7.17;6.03;;;19.40;74.10;;;;;;5168865;27;20263;-70
2021/06/16 02:34:20;;;;;;;15.33;6.37;;;19.30;74.10;;;;;;5158419;27;20225;-70
2021/06/16 02:36:49;;;;;;;9.87;6.60;;;19.30;74.10;;;;;;5166781;27;20704;-70
2021/06/16 02:39:30;;;;;;;6.93;5.73;;;19.30;74.20;;;;;;5166216;27;20773;-70
2021/06/16 02:41:58;;;;;;;12.70;6.80;;;19.30;74.10;;;;;;5161572;27;20524;-70
2021/06/16 02:44:26;;;;;;;11.53;6.40;;;19.30;74.30;;;;;;5167219;27;20287;-70
2021/06/16 02:46:55;;;;;;;9.77;6.80;;;19.30;74.30;;;;;;5161986;27;20215;-70
2021/06/16 02:49:29;;;;;;;10.30;6.73;;;19.30;74.40;;;;;;5167157;27;20221;-70
2021/06/16 02:52:01;;;;;;;7.67;5.97;;;19.40;74.60;;;;;;5164549;27;20215;-70
2021/06/16 02:54:32;;;;;;;7.97;6.27;;;19.30;74.50;;;;;;5166884;27;20722;-70
2021/06/16 02:57:02;;;;;;;10.77;7.43;;;19.30;74.70;;;;;;5166871;27;20215;-70
2021/06/16 02:59:31;;;;;;;7.33;6.47;;;19.20;75.00;;;;;;5165460;27;20256;-70
2021/06/16 03:01:58;;;;;;;9.40;6.47;;;19.20;75.30;;;;;;5168172;27;20199;-70
2021/06/16 03:04:26;;;;;;;10.63;7.17;;;19.20;75.50;;;;;;5161437;27;20211;-70
2021/06/16 03:06:56;;;;;;;7.73;6.73;;;19.10;75.60;;;;;;5167214;27;20206;-70
2021/06/16 03:09:24;;;;;;;11.07;6.77;;;19.10;75.70;;;;;;5165090;27;20214;-68
2021/06/16 03:11:51;;;;;;;9.03;6.93;;;19.00;75.90;;;;;;5166991;27;20279;-68
2021/06/16 03:14:25;;;;;;;10.70;7.47;;;19.00;76.30;;;;;;5165191;27;20635;-68
2021/06/16 03:16:53;;;;;;;8.07;6.70;;;19.00;76.60;;;;;;5160956;27;20222;-68
2021/06/16 03:19:22;;;;;;;6.53;5.90;;;19.00;76.80;;;;;;5167196;27;20227;-68
2021/06/16 03:21:50;;;;;;;10.70;6.13;;;18.90;76.80;;;;;;5165687;27;20246;-68
2021/06/16 03:24:18;;;;;;;13.43;6.93;;;18.90;76.90;;;;;;5166387;27;20215;-68
2021/06/16 03:26:47;;;;;;;9.83;6.47;;;18.90;77.00;;;;;;5164299;27;20215;-68
2021/06/16 03:29:28;;;;;;;13.77;5.53;;;18.80;77.20;;;;;;5163527;27;20687;-68
2021/06/16 03:31:57;;;;;;;12.37;6.53;;;18.80;77.00;;;;;;5165175;27;20225;-68
2021/06/16 03:34:24;;;;;;;11.13;6.33;;;18.70;77.00;;;;;;5159369;27;20290;-68
2021/06/16 03:36:52;;;;;;;19.73;6.50;;;18.60;77.20;;;;;;5167350;27;20218;-68
2021/06/16 03:39:20;;;;;;;7.00;6.20;;;18.60;77.60;;;;;;5159560;27;20226;-68
2021/06/16 03:41:48;;;;;;;11.13;6.53;;;18.60;78.00;;;;;;5164237;27;20207;-68
2021/06/16 03:44:16;;;;;;;8.83;6.93;;;18.60;78.30;;;;;;5165617;27;20612;-68
2021/06/16 03:46:43;;;;;;;9.90;7.30;;;18.60;78.30;;;;;;5163334;27;20217;-68
2021/06/16 03:49:12;;;;;;;10.70;6.80;;;18.60;78.20;;;;;;5165397;27;20210;-68
2021/06/16 03:51:43;;;;;;;11.57;7.27;;;18.60;78.20;;;;;;5163661;27;20275;-68
2021/06/16 03:54:11;;;;;;;8.90;6.50;;;18.70;78.20;;;;;;5160398;27;20246;-68
2021/06/16 03:56:42;;;;;;;8.00;6.40;;;18.70;78.10;;;;;;5163567;27;20207;-68
2021/06/16 03:59:10;;;;;;;9.97;7.20;;;18.80;78.20;;;;;;5164808;27;20230;-68
2021/06/16 04:01:39;;;;;;;11.20;7.27;;;18.90;78.10;;;;;;5166584;27;20214;-68
2021/06/16 04:04:11;;;;;;;10.90;7.37;;;18.90;78.00;;;;;;5158244;27;20537;-68
2021/06/16 04:06:42;;;;;;;11.40;6.80;;;19.00;78.00;;;;;;5164209;27;20207;-68
2021/06/16 04:09:11;;;;;;;19.97;8.13;;;19.00;78.00;;;;;;5164729;27;20278;-68
2021/06/16 04:11:39;;;;;;;12.70;7.90;;;19.10;78.00;;;;;;5163141;27;20203;-68
2021/06/16 04:14:06;;;;;;;8.10;7.30;;;19.10;78.10;;;;;;5166738;27;20210;-68
2021/06/16 04:16:33;;;;;;;13.43;6.57;;;19.20;78.20;;;;;;5160454;27;20209;-68
2021/06/16 04:19:01;;;;;;;10.47;6.13;;;19.30;78.20;;;;;;5164103;27;20257;-68
2021/06/16 04:21:28;;;;;;;11.93;6.83;;;19.40;78.10;;;;;;5164086;27;20225;-68
2021/06/16 04:23:55;;;;;;;12.60;6.77;;;19.40;78.00;;;;;;5163514;27;20211;-68
2021/06/16 04:26:23;;;;;;;8.00;7.20;;;19.50;77.50;;;;;;5167397;27;20207;-68
2021/06/16 04:28:50;;;;;;;7.27;6.57;;;19.60;77.40;;;;;;5164293;27;20226;-68
2021/06/16 04:31:18;;;;;;;11.60;7.03;;;19.70;77.10;;;;;;5162706;27;20255;-68
2021/06/16 04:33:45;;;;;;;13.80;7.17;;;19.80;76.80;;;;;;5165101;27;20221;-68
2021/06/16 04:36:12;;;;;;;9.37;7.03;;;19.90;76.50;;;;;;5159588;27;20211;-68
2021/06/16 04:38:39;;;;;;;13.93;7.33;;;20.10;76.40;;;;;;5162765;27;20219;-68
2021/06/16 04:41:06;;;;;;;10.20;6.80;;;20.20;76.20;;;;;;5155454;27;20203;-69
2021/06/16 04:43:33;;;;;;;9.43;6.70;;;20.30;76.00;;;;;;5166884;27;20211;-70
2021/06/16 04:46:00;;;;;;;9.90;6.53;;;20.40;75.70;;;;;;5155787;27;20199;-70
2021/06/16 04:48:27;;;;;;;7.37;5.53;;;20.50;75.70;;;;;;5165831;27;20316;-70
2021/06/16 04:50:55;;;;;;;6.93;5.63;;;20.60;75.70;;;;;;5145252;27;20715;-70
2021/06/16 04:53:22;;;;;;;14.63;6.70;;;20.70;75.30;;;;;;5166416;27;20249;-70
2021/06/16 04:55:49;;;;;;;10.17;6.30;;;20.80;75.10;;;;;;5163515;27;20241;-70
2021/06/16 04:58:16;;;;;;;11.07;6.27;;;20.90;74.70;;;;;;5166978;27;20234;-70
2021/06/16 05:00:43;;;;;;;8.30;6.17;;;21.10;74.60;;;;;;5167113;27;20206;-70
2021/06/16 05:03:10;;;;;;;7.00;6.30;;;21.20;74.50;;;;;;5168871;27;20274;-70
2021/06/16 05:05:37;;;;;;;9.03;6.70;;;21.40;74.40;;;;;;5161146;27;20239;-70
2021/06/16 05:08:04;;;;;;;7.00;5.87;;;21.60;74.20;;;;;;5169649;27;20532;-70
2021/06/16 05:10:31;;;;;;;11.73;6.53;;;21.70;73.70;;;;;;5162659;27;20214;-70
2021/06/16 05:12:58;;;;;;;9.77;7.07;;;21.80;73.40;;;;;;5170308;27;20687;-70
2021/06/16 05:15:25;;;;;;;6.83;5.90;;;22.00;73.20;;;;;;5165607;27;20233;-70
2021/06/16 05:17:52;;;;;;;9.43;6.70;;;22.20;73.10;;;;;;5167402;27;20218;-70
2021/06/16 05:20:20;;;;;;;11.83;6.60;;;22.30;72.40;;;;;;5169780;27;20264;-71
2021/06/16 05:22:48;;;;;;;9.63;6.70;;;22.40;71.50;;;;;;5168256;27;20270;-71
2021/06/16 05:25:17;;;;;;;11.17;7.23;;;22.50;71.60;;;;;;5169043;27;20217;-71
2021/06/16 05:27:44;;;;;;;10.33;7.13;;;22.60;71.50;;;;;;5166359;27;20211;-71
2021/06/16 05:30:13;;;;;;;8.20;6.43;;;22.80;71.20;;;;;;5162113;27;20276;-71
2021/06/16 05:32:40;;;;;;;10.57;6.27;;;22.90;70.90;;;;;;5169184;27;20218;-71
2021/06/16 05:35:08;;;;;;;10.93;6.93;;;23.00;70.60;;;;;;5161744;27;20213;-71
2021/06/16 05:37:36;;;;;;;7.40;6.10;;;23.20;69.90;;;;;;5168038;27;20219;-71
2021/06/16 05:40:07;;;;;;;11.43;6.20;;;23.30;69.40;;;;;;5163032;27;20746;-71
2021/06/16 05:42:34;;;;;;;8.73;6.10;;;23.40;69.00;;;;;;5169609;27;20217;-71
2021/06/16 05:45:01;;;;;;;7.17;6.07;;;23.50;68.60;;;;;;5160424;27;20222;-71
2021/06/16 05:47:28;;;;;;;6.73;6.07;;;23.60;67.70;;;;;;5169315;27;20240;-71
2021/06/16 05:49:56;;;;;;;10.23;5.97;;;23.70;67.50;;;;;;5167429;27;20211;-71
2021/06/16 05:52:23;;;;;;;7.53;6.43;;;23.80;67.70;;;;;;5167797;27;20227;-71
2021/06/16 05:54:50;;;;;;;8.70;6.50;;;23.90;67.10;;;;;;5167975;27;20275;-71
2021/06/16 05:57:17;;;;;;;8.93;6.20;;;23.90;67.00;;;;;;5166500;27;20275;-71
2021/06/16 05:59:45;;;;;;;10.47;6.27;;;24.00;67.00;;;;;;5168994;27;20324;-71
2021/06/16 06:02:12;;;;;;;10.77;6.70;;;24.10;67.10;;;;;;5165551;27;20211;-71
2021/06/16 06:04:39;;;;;;;9.33;6.63;;;24.20;66.50;;;;;;5168222;27;20218;-71
2021/06/16 06:07:07;;;;;;;14.50;7.43;;;24.30;66.10;;;;;;5166323;27;20211;-71
2021/06/16 06:09:34;;;;;;;7.00;6.30;;;24.50;66.00;;;;;;5168786;27;20215;-71
2021/06/16 06:12:01;;;;;;;7.00;6.30;;;24.70;65.80;;;;;;5166015;27;20253;-71
2021/06/16 06:14:28;;;;;;;8.77;6.90;;;24.80;65.00;;;;;;5162371;27;20212;-71
2021/06/16 06:16:55;;;;;;;12.43;6.67;;;25.00;64.50;;;;;;5162504;27;20215;-71
2021/06/16 06:19:22;;;;;;;8.30;6.20;;;24.90;64.70;;;;;;5165400;27;20238;-71
2021/06/16 06:21:49;;;;;;;14.77;6.63;;;24.90;65.00;;;;;;5157424;27;20815;-71
2021/06/16 06:24:16;;;;;;;14.00;6.87;;;25.00;65.10;;;;;;5164859;27;20683;-71
2021/06/16 06:26:43;;;;;;;10.93;5.97;;;25.10;64.90;;;;;;5167469;27;20215;-71
2021/06/16 06:29:10;;;;;;;11.70;6.00;;;25.20;64.60;;;;;;5162955;27;20255;-71
2021/06/16 06:31:37;;;;;;;8.47;6.30;;;25.40;64.90;;;;;;5148218;27;20218;-71
2021/06/16 06:34:04;;;;;;;8.97;6.20;;;25.60;63.70;;;;;;5168376;27;20293;-71
2021/06/16 06:36:32;;;;;;;8.93;6.33;;;25.80;63.60;;;;;;5162908;27;20282;-71
2021/06/16 06:38:59;;;;;;;8.70;6.67;;;25.90;63.60;;;;;;5166188;27;20353;-71
2021/06/16 06:41:26;;;;;;;11.87;6.53;;;26.20;63.10;;;;;;5158110;27;20203;-71
2021/06/16 06:43:53;;;;;;;7.97;6.20;;;26.40;62.00;;;;;;5167713;27;20217;-71
2021/06/16 06:46:20;;;;;;;9.37;6.97;;;26.50;61.60;;;;;;5159590;27;20203;-71
2021/06/16 06:48:47;;;;;;;10.20;6.13;;;26.50;60.80;;;;;;5162326;27;20286;-71
2021/06/16 06:51:14;;;;;;;6.10;5.50;;;26.60;60.30;;;;;;5166477;27;20215;-71
2021/06/16 06:53:40;;;;;;;8.90;5.90;;;26.60;60.70;;;;;;5162402;27;20280;-71
2021/06/16 06:56:08;;;;;;;7.37;6.10;;;26.70;60.50;;;;;;5163114;27;20257;-71
2021/06/16 06:58:35;;;;;;;10.03;6.17;;;26.80;60.40;;;;;;5167308;27;20234;-71
2021/06/16 07:01:02;;;;;;;8.93;5.60;;;26.80;60.80;;;;;;5159641;27;20255;-71
2021/06/16 07:03:31;;;;;;;9.90;5.37;;;26.90;61.10;;;;;;5164863;27;20275;-71
2021/06/16 07:05:58;;;;;;;8.00;5.90;;;27.20;60.10;;;;;;5159463;27;20751;-71
2021/06/16 07:08:25;;;;;;;7.67;6.83;;;27.60;58.90;;;;;;5166139;27;20297;-71
2021/06/16 07:10:52;;;;;;;6.83;6.07;;;27.80;58.30;;;;;;5161793;27;20258;-71
2021/06/16 07:13:19;;;;;;;7.60;5.60;;;27.80;57.90;;;;;;5162885;27;20279;-71
2021/06/16 07:16:05;;;;;;;9.30;5.87;;;27.80;57.60;;;;;;5164297;27;20253;-71
2021/06/16 07:18:32;;;;;;;9.80;5.77;;;27.90;58.00;;;;;;5167457;27;20232;-71
2021/06/16 07:20:59;;;;;;;7.93;6.30;;;28.00;57.80;;;;;;5164738;27;20244;-71
2021/06/16 07:23:26;;;;;;;10.63;5.20;;;28.10;57.30;;;;;;5167342;27;20225;-71
2021/06/16 07:25:53;;;;;;;7.23;5.10;;;28.10;56.50;;;;;;5167692;27;20274;-71
2021/06/16 07:28:20;;;;;;;8.83;4.90;;;27.90;57.20;;;;;;5164586;27;20260;-71
2021/06/16 07:30:47;;;;;;;11.80;5.70;;;27.90;57.20;;;;;;5166680;27;20217;-71
2021/06/16 07:33:14;;;;;;;6.30;5.33;;;28.20;56.80;;;;;;5165165;27;20632;-71
2021/06/16 07:35:41;;;;;;;8.70;4.90;;;28.40;56.30;;;;;;5164235;27;20259;-71
2021/06/16 07:38:08;;;;;;;8.53;4.90;;;28.50;55.40;;;;;;5166325;27;20291;-71
2021/06/16 07:40:35;;;;;;;9.83;4.63;;;28.60;54.60;;;;;;5167476;27;20226;-71
2021/06/16 07:43:03;;;;;;;6.50;5.20;;;28.80;53.70;;;;;;5159680;27;20282;-71
2021/06/16 07:45:30;;;;;;;7.30;4.63;;;29.10;53.40;;;;;;5158614;27;20262;-71
2021/06/16 07:47:58;;;;;;;4.53;4.03;;;29.30;53.40;;;;;;5163704;27;20203;-71
2021/06/16 07:50:26;;;;;;;6.73;3.70;;;29.30;52.90;;;;;;5161206;27;20207;-71
2021/06/16 07:52:53;;;;;;;7.40;4.50;;;29.20;52.20;;;;;;5164626;27;20242;-71
2021/06/16 07:55:24;;;;;;;6.90;4.53;;;29.20;52.80;;;;;;5161497;27;20217;-71
2021/06/16 07:57:51;;;;;;;5.70;5.10;;;29.50;51.10;;;;;;5162975;27;20221;-71
2021/06/16 08:00:18;;;;;;;6.37;4.40;;;29.70;50.50;;;;;;5159259;27;20231;-71
2021/06/16 08:02:45;;;;;;;7.03;3.97;;;30.00;50.90;;;;;;5166587;27;20206;-71
2021/06/16 08:05:13;;;;;;;4.77;4.20;;;30.10;51.00;;;;;;5160765;27;20203;-71
2021/06/16 08:07:40;;;;;;;10.90;4.57;;;30.30;49.40;;;;;;5163198;27;20243;-71
2021/06/16 08:10:08;;;;;;;7.83;3.97;;;30.30;49.70;;;;;;5158101;27;20263;-71
2021/06/16 08:12:35;;;;;;;6.67;4.43;;;30.40;50.30;;;;;;5164308;27;20260;-71
2021/06/16 08:15:04;;;;;;;8.00;4.37;;;30.60;49.20;;;;;;5164088;27;20674;-71
2021/06/16 08:17:33;;;;;;;6.93;4.03;;;30.60;49.20;;;;;;5159667;27;20682;-71
2021/06/16 08:20:00;;;;;;;4.53;4.10;;;30.80;48.60;;;;;;5163204;27;20231;-71
2021/06/16 08:22:27;;;;;;;6.23;4.17;;;30.80;47.10;;;;;;5158236;27;20275;-71
2021/06/16 08:24:56;;;;;;;8.90;4.47;;;30.70;47.20;;;;;;5165023;27;20218;-71
2021/06/16 08:27:23;;;;;;;7.27;4.47;;;30.70;46.70;;;;;;5165646;27;20603;-71
2021/06/16 08:29:50;;;;;;;7.90;4.67;;;30.60;47.80;;;;;;5167170;27;20206;-68
2021/06/16 08:32:17;;;;;;;5.10;3.97;;;30.70;47.80;;;;;;5163220;27;20253;-69
2021/06/16 08:34:44;;;;;;;6.97;4.27;;;30.70;47.30;;;;;;5159406;27;20279;-69
2021/06/16 08:37:11;;;;;;;5.73;3.87;;;30.70;47.80;;;;;;5161450;27;20238;-69
2021/06/16 08:39:38;;;;;;;6.20;4.47;;;30.70;47.90;;;;;;5164087;27;20667;-70
2021/06/16 08:42:08;;;;;;;6.63;4.00;;;30.80;48.00;;;;;;5160597;27;20206;-70
2021/06/16 08:44:37;;;;;;;7.63;4.23;;;30.90;48.10;;;;;;5145558;27;20238;-69
2021/06/16 08:47:05;;;;;;;7.00;4.23;;;31.10;47.40;;;;;;5166135;27;20218;-69
2021/06/16 08:49:33;;;;;;;7.03;4.07;;;31.40;47.20;;;;;;5162945;27;20660;-69
2021/06/16 08:52:01;;;;;;;4.97;4.07;;;31.70;46.70;;;;;;5170462;27;20219;-69
2021/06/16 08:54:30;;;;;;;8.97;4.30;;;32.00;46.20;;;;;;5167963;27;20239;-68
2021/06/16 08:56:57;;;;;;;8.73;4.40;;;32.20;46.00;;;;;;5168692;27;20508;-69
2021/06/16 08:59:25;;;;;;;5.87;4.60;;;32.40;44.90;;;;;;5162652;27;20261;-69
2021/06/16 09:01:52;;;;;;;6.00;4.47;;;32.50;44.90;;;;;;5149222;27;20207;-69
2021/06/16 09:04:46;;;;;;;8.10;4.90;;;32.60;44.60;;;;;;5170069;27;20210;-69
2021/06/16 09:07:17;;;;;;;4.73;4.00;;;32.70;44.80;;;;;;5170731;27;20206;-69
2021/06/16 09:09:46;;;;;;;6.33;4.47;;;32.70;45.00;;;;;;5167728;27;20219;-69
2021/06/16 09:12:18;;;;;;;5.57;4.37;;;32.70;45.30;;;;;;5168669;27;20222;-70
2021/06/16 09:14:53;;;;;;;9.30;4.90;;;32.90;44.10;;;;;;5165770;27;20236;-70
2021/06/16 09:17:22;;;;;;;7.97;4.47;;;33.00;43.00;;;;;;5163372;27;20251;-69
2021/06/16 09:19:59;;;;;;;8.97;4.90;;;33.10;43.60;;;;;;5164944;27;20292;-69
2021/06/16 09:22:35;;;;;;;12.40;5.27;;;33.10;43.90;;;;;;5169771;27;20221;-69
2021/06/16 09:25:11;;;;;;;7.33;4.00;;;33.10;43.00;;;;;;5164325;27;20827;-69
2021/06/16 09:27:42;;;;;;;10.03;4.70;;;32.90;44.40;;;;;;5167455;27;20266;-69
2021/06/16 09:30:19;;;;;;;7.00;4.53;;;33.00;44.20;;;;;;5167359;27;20210;-69
2021/06/16 09:32:48;;;;;;;6.73;5.00;;;33.20;44.10;;;;;;5168089;27;20298;-69
2021/06/16 09:35:24;;;;;;;7.20;4.73;;;33.30;43.60;;;;;;5167486;27;20281;-69
2021/06/16 09:37:52;;;;;;;10.30;5.80;;;33.10;43.80;;;;;;5155361;27;20259;-69
2021/06/16 09:40:34;;;;;;;9.50;5.33;;;32.90;43.70;;;;;;5169773;27;20274;-69
2021/06/16 09:43:10;;;;;;;10.20;5.53;;;32.50;44.20;;;;;;5165496;27;20207;-69
2021/06/16 09:45:44;;;;;;;7.17;5.20;;;32.20;44.80;;;;;;5160222;27;20198;-69
2021/06/16 09:48:35;;;;;;;8.03;6.33;;;32.10;45.60;;;;;;5167054;27;20263;-69
2021/06/16 09:51:28;;;;;;;10.17;5.27;;;32.00;45.10;;;;;;5166999;27;20649;-69
2021/06/16 09:54:12;;;;;;;6.17;4.80;;;31.80;45.60;;;;;;5164833;27;20258;-69
2021/06/16 09:56:52;;;;;;;7.90;5.80;;;31.70;46.30;;;;;;5165068;27;20203;-69
2021/06/16 09:59:41;;;;;;;7.60;5.57;;;31.60;46.00;;;;;;5162890;27;20894;-69
2021/06/16 10:02:18;;;;;;;10.47;6.37;;;31.50;47.10;;;;;;5168798;27;20210;-69
2021/06/16 10:04:49;;;;;;;15.10;6.20;;;31.30;47.30;;;;;;5164106;27;20218;-68
2021/06/16 10:07:25;;;;;;;11.30;6.00;;;31.00;47.60;;;;;;5167156;27;20222;-68
2021/06/16 10:10:05;;;;;;;9.07;5.90;;;30.90;48.40;;;;;;5165110;27;20341;-68
2021/06/16 10:12:37;;;;;;;10.90;6.47;;;30.90;48.50;;;;;;5169107;27;20205;-68
2021/06/16 10:15:12;;;;;;;12.07;5.77;;;30.80;48.90;;;;;;5162532;27;20229;-68
2021/06/16 10:17:40;;;;;;;7.70;5.53;;;31.00;49.00;;;;;;5163893;27;20309;-69
2021/06/16 10:20:09;;;;;;;7.43;5.50;;;31.00;49.50;;;;;;5165008;27;20235;-68
2021/06/16 10:22:36;;;;;;;12.97;6.03;;;31.00;49.60;;;;;;5166308;27;20588;-69
2021/06/16 10:25:04;;;;;;;10.60;6.17;;;31.20;49.80;;;;;;5168372;27;20218;-69
2021/06/16 10:27:46;;;;;;;7.27;6.47;;;31.20;49.00;;;;;;5165023;27;20229;-68
2021/06/16 10:30:16;;;;;;;11.67;6.30;;;31.20;49.40;;;;;;5159612;27;20218;-69
2021/06/16 10:32:46;;;;;;;7.70;6.60;;;31.10;49.50;;;;;;5168619;27;20217;-69
2021/06/16 10:35:29;;;;;;;8.73;6.73;;;31.10;49.40;;;;;;5161290;27;20211;-68
2021/06/16 10:38:11;;;;;;;10.60;6.23;;;31.10;49.30;;;;;;5165730;27;20215;-69
2021/06/16 10:40:45;;;;;;;8.20;6.60;;;30.90;50.20;;;;;;5163776;27;20703;-69
2021/06/16 10:43:16;;;;;;;10.03;6.83;;;30.90;49.90;;;;;;5165510;27;20217;-68
2021/06/16 10:46:04;;;;;;;10.50;6.30;;;30.80;50.20;;;;;;5153085;27;20278;-68
2021/06/16 10:48:43;;;;;;;11.07;5.77;;;30.60;51.00;;;;;;5148489;27;20210;-68
2021/06/16 10:51:27;;;;;;;6.60;5.83;;;30.60;51.40;;;;;;5163793;27;20259;-68
2021/06/16 10:54:18;;;;;;;7.27;6.53;;;30.50;50.90;;;;;;5161227;27;20295;-68
2021/06/16 10:56:54;;;;;;;7.90;6.03;;;30.40;51.90;;;;;;5161458;27;20211;-68
2021/06/16 10:59:42;;;;;;;10.30;6.63;;;30.30;52.40;;;;;;5161349;27;20214;-69
2021/06/16 11:02:18;;;;;;;11.47;6.80;;;30.10;52.80;;;;;;5163543;27;20611;-69
2021/06/16 11:04:46;;;;;;;8.30;6.33;;;30.20;53.30;;;;;;5155917;27;20244;-69
2021/06/16 11:07:31;;;;;;;7.13;6.43;;;30.30;53.50;;;;;;5160088;27;20211;-69
2021/06/16 11:10:06;;;;;;;7.27;6.23;;;30.60;53.40;;;;;;5166838;27;20214;-69
2021/06/16 11:12:44;;;;;;;7.97;6.43;;;30.80;52.80;;;;;;5161575;27;20251;-69
2021/06/16 11:15:33;;;;;;;8.33;5.77;;;30.90;52.20;;;;;;5165034;27;20243;-69
2021/06/16 11:18:02;;;;;;;12.33;5.83;;;30.90;52.20;;;;;;5164412;27;20277;-68
2021/06/16 11:20:33;;;;;;;6.60;6.00;;;30.90;51.90;;;;;;5167378;27;20719;-68
2021/06/16 11:23:07;;;;;;;8.60;6.83;;;30.90;52.40;;;;;;5162642;27;20206;-68
2021/06/16 11:25:43;;;;;;;8.93;6.60;;;31.00;51.80;;;;;;5165224;27;20617;-68
2021/06/16 11:28:16;;;;;;;11.17;6.27;;;31.10;51.40;;;;;;5146487;27;20255;-68
2021/06/16 11:30:56;;;;;;;7.80;6.27;;;31.10;52.50;;;;;;5160981;27;20758;-68
2021/06/16 11:33:38;;;;;;;9.60;5.60;;;31.10;52.60;;;;;;5164740;27;20279;-68
2021/06/16 11:36:05;;;;;;;7.90;6.10;;;31.20;51.70;;;;;;5160943;27;20271;-68
2021/06/16 11:38:36;;;;;;;8.40;5.90;;;31.10;52.10;;;;;;5163466;27;20248;-68
2021/06/16 11:41:17;;;;;;;7.70;5.57;;;31.10;52.10;;;;;;5166780;27;20237;-68
2021/06/16 11:43:57;;;;;;;7.07;5.00;;;31.10;52.40;;;;;;5155508;27;20195;-68
2021/06/16 11:46:30;;;;;;;7.90;5.10;;;31.20;51.00;;;;;;5163655;27;20224;-68
2021/06/16 11:49:10;;;;;;;7.33;4.90;;;31.40;50.80;;;;;;5166130;27;20206;-68
2021/06/16 11:51:52;;;;;;;6.30;5.07;;;31.50;50.60;;;;;;5167267;27;20214;-68
2021/06/16 11:54:27;;;;;;;7.90;5.33;;;31.80;49.10;;;;;;5104794;27;20251;-68
2021/06/16 11:57:08;;;;;;;7.87;4.87;;;31.90;48.00;;;;;;5101716;28;20289;-68
2021/06/16 11:59:51;;;;;;;7.40;4.20;;;32.00;48.80;;;;;;5099849;28;20217;-68
2021/06/16 12:02:36;;;;;;;5.37;4.47;;;32.30;46.70;;;;;;5105379;28;20213;-68
2021/06/16 12:05:08;;;;;;;5.20;4.73;;;32.40;46.20;;;;;;5105394;28;20223;-68
2021/06/16 12:07:50;;;;;;;8.67;4.17;;;32.30;46.50;;;;;;5102775;28;20240;-68
2021/06/16 12:10:26;;;;;;;7.07;4.60;;;32.20;47.50;;;;;;5101013;28;20533;-68
2021/06/16 12:13:02;;;;;;;6.77;4.90;;;32.30;47.60;;;;;;5104627;28;20204;-68
2021/06/16 12:15:34;;;;;;;4.70;4.30;;;32.30;46.40;;;;;;5101329;28;20223;-68
2021/06/16 12:18:06;;;;;;;4.73;4.27;;;32.40;47.40;;;;;;5101793;28;20240;-68
2021/06/16 12:20:44;;;;;;;6.67;4.47;;;32.40;47.20;;;;;;5105417;28;20246;-68
2021/06/16 12:23:28;;;;;;;6.07;5.07;;;32.50;48.40;;;;;;5105434;28;20212;-68
2021/06/16 12:26:05;;;;;;;6.47;4.30;;;32.50;47.20;;;;;;5104010;28;20303;-68
2021/06/16 12:28:38;;;;;;;5.87;4.03;;;32.50;47.20;;;;;;5102481;28;20619;-68
2021/06/16 12:31:10;;;;;;;8.13;4.60;;;32.50;46.90;;;;;;5101084;28;20598;-68
2021/06/16 12:33:48;;;;;;;4.83;4.27;;;32.50;46.60;;;;;;5103984;28;20208;-69
2021/06/16 12:36:23;;;;;;;5.43;4.77;;;32.50;45.10;;;;;;5102608;28;20220;-69
2021/06/16 12:39:18;;;;;;;5.23;4.43;;;32.50;45.30;;;;;;5101842;28;20212;-69
2021/06/16 12:41:53;;;;;;;7.07;5.00;;;32.50;46.40;;;;;;5104033;28;20236;-68
2021/06/16 12:44:33;;;;;;;7.70;4.93;;;32.60;46.30;;;;;;5100811;28;20700;-69
2021/06/16 12:49:49;;;;;;;8.37;5.00;;;32.60;46.80;;;;;;5101407;28;20192;-68
2021/06/16 12:52:34;;;;;;;5.77;4.47;;;32.50;46.30;;;;;;5103639;28;20204;-68
2021/06/16 12:55:15;;;;;;;8.03;5.37;;;32.40;46.30;;;;;;5162290;27;20207;-68
2021/06/16 12:57:45;;;;;;;9.90;4.60;;;32.40;47.30;;;;;;5158665;27;20207;-69
2021/06/16 13:00:15;;;;;;;4.47;4.07;;;32.50;47.00;;;;;;5158236;27;20812;-69
2021/06/16 13:02:42;;;;;;;6.90;4.73;;;32.60;47.00;;;;;;5164394;27;20293;-69
2021/06/16 13:05:14;;;;;;;6.00;4.60;;;32.70;47.10;;;;;;5165563;27;20248;-68